Airport View

Enter AWOS ICAO identifier for current METAR.

ex. KFNL

KOLZ 100450Z AUTO 36004KT 10SM FEW170 OVC190 20/18 A2989 RMK A01

10 Jul 2020 04:55

Frequency: 119.675

Phone: 319-283-3518

Other Area AWOS: KIIB - KALO - KVTI - KCCY

TAF KALO 092330Z 1000/1024 01009KT P6SM VCSH SCT050 OVC120 FM100300 34005KT P6SM SKC FM101600 31011KT P6SM FEW070